sensor_id;sensor_type;location;lat;lon;timestamp;P1;durP1;ratioP1;P2;durP2;ratioP2
44508;SDS011;30214;52.246;14.408;2022-08-11T00:01:10;7.53;;;3.83;;
44508;SDS011;30214;52.246;14.408;2022-08-11T00:03:43;6.35;;;3.30;;
44508;SDS011;30214;52.246;14.408;2022-08-11T00:06:15;7.47;;;3.63;;
44508;SDS011;30214;52.246;14.408;2022-08-11T00:08:51;9.00;;;3.72;;
44508;SDS011;30214;52.246;14.408;2022-08-11T00:11:19;6.93;;;3.58;;
44508;SDS011;30214;52.246;14.408;2022-08-11T00:13:48;7.32;;;4.20;;
44508;SDS011;30214;52.246;14.408;2022-08-11T00:16:16;5.35;;;3.90;;
44508;SDS011;30214;52.246;14.408;2022-08-11T00:18:46;6.63;;;3.70;;
44508;SDS011;30214;52.246;14.408;2022-08-11T00:21:18;6.97;;;3.67;;
44508;SDS011;30214;52.246;14.408;2022-08-11T00:23:51;7.45;;;3.88;;
44508;SDS011;30214;52.246;14.408;2022-08-11T00:26:21;6.70;;;4.50;;
44508;SDS011;30214;52.246;14.408;2022-08-11T00:28:50;8.57;;;4.60;;
44508;SDS011;30214;52.246;14.408;2022-08-11T00:31:20;6.70;;;4.38;;
44508;SDS011;30214;52.246;14.408;2022-08-11T00:33:51;5.40;;;4.30;;
44508;SDS011;30214;52.246;14.408;2022-08-11T00:36:22;9.80;;;4.50;;
44508;SDS011;30214;52.246;14.408;2022-08-11T00:38:54;7.38;;;4.65;;
44508;SDS011;30214;52.246;14.408;2022-08-11T00:41:32;6.78;;;4.47;;
44508;SDS011;30214;52.246;14.408;2022-08-11T00:44:15;7.88;;;4.78;;
44508;SDS011;30214;52.246;14.408;2022-08-11T00:46:56;9.75;;;4.43;;
44508;SDS011;30214;52.246;14.408;2022-08-11T00:49:45;8.48;;;4.85;;
44508;SDS011;30214;52.246;14.408;2022-08-11T00:55:25;5.28;;;4.47;;
44508;SDS011;30214;52.246;14.408;2022-08-11T00:58:15;10.80;;;4.65;;
44508;SDS011;30214;52.246;14.408;2022-08-11T01:01:18;5.70;;;4.03;;
44508;SDS011;30214;52.246;14.408;2022-08-11T01:04:08;7.22;;;5.07;;
44508;SDS011;30214;52.246;14.408;2022-08-11T01:07:23;6.75;;;4.57;;
44508;SDS011;30214;52.246;14.408;2022-08-11T01:11:04;5.82;;;4.35;;
44508;SDS011;30214;52.246;14.408;2022-08-11T01:14:07;6.22;;;4.50;;
44508;SDS011;30214;52.246;14.408;2022-08-11T01:17:27;11.32;;;4.82;;
44508;SDS011;30214;52.246;14.408;2022-08-11T01:27:31;6.75;;;5.05;;
44508;SDS011;30214;52.246;14.408;2022-08-11T01:34:11;6.32;;;4.30;;
44508;SDS011;30214;52.246;14.408;2022-08-11T01:40:32;8.82;;;4.45;;
44508;SDS011;30214;52.246;14.408;2022-08-11T01:44:03;8.32;;;4.93;;
44508;SDS011;30214;52.246;14.408;2022-08-11T01:47:09;9.35;;;4.68;;
44508;SDS011;30214;52.246;14.408;2022-08-11T01:50:20;7.53;;;4.35;;
44508;SDS011;30214;52.246;14.408;2022-08-11T01:53:02;10.52;;;4.75;;
44508;SDS011;30214;52.246;14.408;2022-08-11T01:55:39;9.57;;;4.60;;
44508;SDS011;30214;52.246;14.408;2022-08-11T01:58:15;6.65;;;4.03;;
44508;SDS011;30214;52.246;14.408;2022-08-11T02:00:53;10.00;;;4.63;;
44508;SDS011;30214;52.246;14.408;2022-08-11T02:03:33;7.72;;;4.93;;
44508;SDS011;30214;52.246;14.408;2022-08-11T02:06:09;6.22;;;5.00;;
44508;SDS011;30214;52.246;14.408;2022-08-11T02:09:04;6.75;;;4.53;;
44508;SDS011;30214;52.246;14.408;2022-08-11T02:11:38;5.85;;;4.63;;
44508;SDS011;30214;52.246;14.408;2022-08-11T02:14:10;7.65;;;4.78;;
44508;SDS011;30214;52.246;14.408;2022-08-11T02:16:51;8.10;;;4.82;;
44508;SDS011;30214;52.246;14.408;2022-08-11T02:19:50;6.90;;;4.60;;
44508;SDS011;30214;52.246;14.408;2022-08-11T02:22:41;6.78;;;4.97;;
44508;SDS011;30214;52.246;14.408;2022-08-11T02:25:37;7.55;;;4.78;;
44508;SDS011;30214;52.246;14.408;2022-08-11T02:28:11;11.38;;;5.00;;
44508;SDS011;30214;52.246;14.408;2022-08-11T02:30:50;8.90;;;5.10;;
44508;SDS011;30214;52.246;14.408;2022-08-11T02:33:45;7.45;;;4.97;;
44508;SDS011;30214;52.246;14.408;2022-08-11T02:36:21;8.82;;;5.15;;
44508;SDS011;30214;52.246;14.408;2022-08-11T02:38:59;9.73;;;5.40;;
44508;SDS011;30214;52.246;14.408;2022-08-11T02:41:35;11.00;;;5.35;;
44508;SDS011;30214;52.246;14.408;2022-08-11T02:44:36;9.13;;;5.53;;
44508;SDS011;30214;52.246;14.408;2022-08-11T02:47:21;8.82;;;4.63;;
44508;SDS011;30214;52.246;14.408;2022-08-11T02:50:04;7.80;;;5.10;;
44508;SDS011;30214;52.246;14.408;2022-08-11T02:52:42;7.13;;;4.97;;
44508;SDS011;30214;52.246;14.408;2022-08-11T02:55:20;11.45;;;5.20;;
44508;SDS011;30214;52.246;14.408;2022-08-11T02:57:55;12.50;;;5.40;;
44508;SDS011;30214;52.246;14.408;2022-08-11T03:00:32;7.10;;;5.50;;
44508;SDS011;30214;52.246;14.408;2022-08-11T03:03:14;10.52;;;4.82;;
44508;SDS011;30214;52.246;14.408;2022-08-11T03:05:52;10.35;;;5.38;;
44508;SDS011;30214;52.246;14.408;2022-08-11T03:08:43;17.67;;;5.75;;
44508;SDS011;30214;52.246;14.408;2022-08-11T03:11:19;8.95;;;5.25;;
44508;SDS011;30214;52.246;14.408;2022-08-11T03:14:26;10.55;;;5.05;;
44508;SDS011;30214;52.246;14.408;2022-08-11T03:17:23;12.80;;;5.72;;
44508;SDS011;30214;52.246;14.408;2022-08-11T03:19:59;10.88;;;5.18;;
44508;SDS011;30214;52.246;14.408;2022-08-11T03:22:43;7.57;;;5.13;;
44508;SDS011;30214;52.246;14.408;2022-08-11T03:25:21;7.53;;;4.82;;
44508;SDS011;30214;52.246;14.408;2022-08-11T03:28:00;8.93;;;4.90;;
44508;SDS011;30214;52.246;14.408;2022-08-11T03:33:18;8.95;;;5.50;;
44508;SDS011;30214;52.246;14.408;2022-08-11T03:38:46;8.55;;;4.78;;
44508;SDS011;30214;52.246;14.408;2022-08-11T03:41:31;7.20;;;4.80;;
44508;SDS011;30214;52.246;14.408;2022-08-11T03:50:15;8.35;;;5.63;;
44508;SDS011;30214;52.246;14.408;2022-08-11T03:52:57;9.32;;;5.72;;
44508;SDS011;30214;52.246;14.408;2022-08-11T03:55:49;10.05;;;6.00;;
44508;SDS011;30214;52.246;14.408;2022-08-11T03:59:29;13.02;;;5.45;;
44508;SDS011;30214;52.246;14.408;2022-08-11T04:02:42;9.82;;;6.07;;
44508;SDS011;30214;52.246;14.408;2022-08-11T04:08:58;9.77;;;5.85;;
44508;SDS011;30214;52.246;14.408;2022-08-11T04:12:07;12.55;;;5.57;;
44508;SDS011;30214;52.246;14.408;2022-08-11T04:14:50;12.57;;;5.68;;
44508;SDS011;30214;52.246;14.408;2022-08-11T04:24:20;10.93;;;5.00;;
44508;SDS011;30214;52.246;14.408;2022-08-11T04:27:32;8.65;;;4.97;;
44508;SDS011;30214;52.246;14.408;2022-08-11T04:30:26;10.20;;;5.00;;
44508;SDS011;30214;52.246;14.408;2022-08-11T04:33:10;9.00;;;4.88;;
44508;SDS011;30214;52.246;14.408;2022-08-11T04:36:40;8.77;;;5.30;;
44508;SDS011;30214;52.246;14.408;2022-08-11T04:39:57;7.53;;;5.00;;
44508;SDS011;30214;52.246;14.408;2022-08-11T04:43:30;10.57;;;5.22;;
44508;SDS011;30214;52.246;14.408;2022-08-11T04:46:36;10.73;;;5.10;;
44508;SDS011;30214;52.246;14.408;2022-08-11T04:49:44;9.05;;;4.82;;
44508;SDS011;30214;52.246;14.408;2022-08-11T04:53:04;15.05;;;6.60;;
44508;SDS011;30214;52.246;14.408;2022-08-11T04:56:24;6.43;;;4.90;;
44508;SDS011;30214;52.246;14.408;2022-08-11T04:59:19;7.45;;;4.68;;
44508;SDS011;30214;52.246;14.408;2022-08-11T05:06:13;9.43;;;5.40;;
44508;SDS011;30214;52.246;14.408;2022-08-11T05:09:47;13.52;;;4.90;;
44508;SDS011;30214;52.246;14.408;2022-08-11T05:12:40;13.38;;;4.93;;
44508;SDS011;30214;52.246;14.408;2022-08-11T05:15:12;9.05;;;5.43;;
44508;SDS011;30214;52.246;14.408;2022-08-11T05:18:08;11.05;;;4.90;;
44508;SDS011;30214;52.246;14.408;2022-08-11T05:20:58;6.85;;;4.60;;
44508;SDS011;30214;52.246;14.408;2022-08-11T05:23:52;12.68;;;4.68;;
44508;SDS011;30214;52.246;14.408;2022-08-11T05:26:43;10.02;;;4.90;;
44508;SDS011;30214;52.246;14.408;2022-08-11T05:29:37;9.82;;;5.10;;
44508;SDS011;30214;52.246;14.408;2022-08-11T05:32:27;10.23;;;4.50;;
44508;SDS011;30214;52.246;14.408;2022-08-11T05:35:22;8.25;;;4.72;;
44508;SDS011;30214;52.246;14.408;2022-08-11T05:37:53;10.07;;;4.82;;
44508;SDS011;30214;52.246;14.408;2022-08-11T05:40:46;9.82;;;4.65;;
44508;SDS011;30214;52.246;14.408;2022-08-11T05:43:32;13.55;;;5.78;;
44508;SDS011;30214;52.246;14.408;2022-08-11T05:46:22;10.88;;;4.82;;
44508;SDS011;30214;52.246;14.408;2022-08-11T05:49:10;9.18;;;4.35;;
44508;SDS011;30214;52.246;14.408;2022-08-11T05:51:57;8.27;;;4.50;;
44508;SDS011;30214;52.246;14.408;2022-08-11T05:54:46;14.50;;;5.00;;
44508;SDS011;30214;52.246;14.408;2022-08-11T05:57:33;8.63;;;4.90;;
44508;SDS011;30214;52.246;14.408;2022-08-11T06:00:03;12.35;;;4.50;;
44508;SDS011;30214;52.246;14.408;2022-08-11T06:02:38;12.02;;;4.45;;
44508;SDS011;30214;52.246;14.408;2022-08-11T06:05:07;9.77;;;4.68;;
44508;SDS011;30214;52.246;14.408;2022-08-11T06:07:35;11.65;;;4.43;;
44508;SDS011;30214;52.246;14.408;2022-08-11T06:10:04;12.82;;;4.78;;
44508;SDS011;30214;52.246;14.408;2022-08-11T06:12:33;11.10;;;4.25;;
44508;SDS011;30214;52.246;14.408;2022-08-11T06:15:05;12.68;;;4.20;;
44508;SDS011;30214;52.246;14.408;2022-08-11T06:17:42;10.35;;;4.40;;
44508;SDS011;30214;52.246;14.408;2022-08-11T06:20:12;9.23;;;4.35;;
44508;SDS011;30214;52.246;14.408;2022-08-11T06:22:42;11.10;;;4.50;;
44508;SDS011;30214;52.246;14.408;2022-08-11T06:25:11;17.63;;;4.30;;
44508;SDS011;30214;52.246;14.408;2022-08-11T06:27:42;11.75;;;4.10;;
44508;SDS011;30214;52.246;14.408;2022-08-11T06:30:10;14.10;;;4.78;;
44508;SDS011;30214;52.246;14.408;2022-08-11T06:32:40;8.45;;;4.10;;
44508;SDS011;30214;52.246;14.408;2022-08-11T06:35:11;14.52;;;3.53;;
44508;SDS011;30214;52.246;14.408;2022-08-11T06:37:46;13.07;;;3.97;;
44508;SDS011;30214;52.246;14.408;2022-08-11T06:40:32;17.50;;;4.75;;
44508;SDS011;30214;52.246;14.408;2022-08-11T06:43:08;11.85;;;4.32;;
44508;SDS011;30214;52.246;14.408;2022-08-11T06:45:47;12.20;;;4.43;;
44508;SDS011;30214;52.246;14.408;2022-08-11T06:48:20;17.58;;;4.82;;
44508;SDS011;30214;52.246;14.408;2022-08-11T06:50:49;14.85;;;4.63;;
44508;SDS011;30214;52.246;14.408;2022-08-11T06:53:37;16.00;;;4.55;;
44508;SDS011;30214;52.246;14.408;2022-08-11T06:56:09;15.45;;;4.43;;
44508;SDS011;30214;52.246;14.408;2022-08-11T06:58:56;14.82;;;4.32;;
44508;SDS011;30214;52.246;14.408;2022-08-11T07:01:50;11.00;;;4.03;;
44508;SDS011;30214;52.246;14.408;2022-08-11T07:04:29;9.15;;;3.90;;
44508;SDS011;30214;52.246;14.408;2022-08-11T07:07:28;12.43;;;3.72;;
44508;SDS011;30214;52.246;14.408;2022-08-11T07:10:40;5.85;;;2.92;;
44508;SDS011;30214;52.246;14.408;2022-08-11T07:13:36;13.02;;;3.30;;
44508;SDS011;30214;52.246;14.408;2022-08-11T07:16:25;8.18;;;3.30;;
44508;SDS011;30214;52.246;14.408;2022-08-11T07:18:54;8.82;;;2.85;;
44508;SDS011;30214;52.246;14.408;2022-08-11T07:21:45;8.85;;;2.90;;
44508;SDS011;30214;52.246;14.408;2022-08-11T07:24:33;7.25;;;2.58;;
44508;SDS011;30214;52.246;14.408;2022-08-11T07:27:22;7.00;;;2.80;;
44508;SDS011;30214;52.246;14.408;2022-08-11T07:30:13;8.52;;;2.60;;
44508;SDS011;30214;52.246;14.408;2022-08-11T07:32:46;6.35;;;2.60;;
44508;SDS011;30214;52.246;14.408;2022-08-11T07:35:21;4.78;;;2.30;;
44508;SDS011;30214;52.246;14.408;2022-08-11T07:37:56;4.82;;;2.15;;
44508;SDS011;30214;52.246;14.408;2022-08-11T07:40:26;3.25;;;1.90;;
44508;SDS011;30214;52.246;14.408;2022-08-11T07:42:55;4.40;;;2.38;;
44508;SDS011;30214;52.246;14.408;2022-08-11T07:45:24;7.05;;;2.17;;
44508;SDS011;30214;52.246;14.408;2022-08-11T07:48:11;6.82;;;2.30;;
44508;SDS011;30214;52.246;14.408;2022-08-11T07:50:58;8.57;;;2.38;;
44508;SDS011;30214;52.246;14.408;2022-08-11T07:53:44;6.65;;;2.47;;
44508;SDS011;30214;52.246;14.408;2022-08-11T07:56:12;4.53;;;2.53;;
44508;SDS011;30214;52.246;14.408;2022-08-11T07:58:40;7.60;;;2.55;;
44508;SDS011;30214;52.246;14.408;2022-08-11T08:01:26;8.52;;;2.90;;
44508;SDS011;30214;52.246;14.408;2022-08-11T08:04:15;11.02;;;3.22;;
44508;SDS011;30214;52.246;14.408;2022-08-11T08:07:02;14.07;;;3.78;;
44508;SDS011;30214;52.246;14.408;2022-08-11T08:09:49;10.93;;;4.18;;
44508;SDS011;30214;52.246;14.408;2022-08-11T08:12:34;11.63;;;3.65;;
44508;SDS011;30214;52.246;14.408;2022-08-11T08:15:19;6.97;;;3.35;;
44508;SDS011;30214;52.246;14.408;2022-08-11T08:18:05;11.55;;;2.70;;
44508;SDS011;30214;52.246;14.408;2022-08-11T08:20:38;5.00;;;2.42;;
44508;SDS011;30214;52.246;14.408;2022-08-11T08:23:10;8.13;;;2.50;;
44508;SDS011;30214;52.246;14.408;2022-08-11T08:25:38;7.88;;;2.10;;
44508;SDS011;30214;52.246;14.408;2022-08-11T08:28:09;4.38;;;2.08;;
44508;SDS011;30214;52.246;14.408;2022-08-11T08:30:40;6.53;;;2.10;;
44508;SDS011;30214;52.246;14.408;2022-08-11T08:33:11;5.03;;;2.00;;
44508;SDS011;30214;52.246;14.408;2022-08-11T08:35:43;6.68;;;1.70;;
44508;SDS011;30214;52.246;14.408;2022-08-11T08:38:13;3.95;;;1.60;;
44508;SDS011;30214;52.246;14.408;2022-08-11T08:40:41;4.05;;;1.60;;
44508;SDS011;30214;52.246;14.408;2022-08-11T08:43:14;3.65;;;1.60;;
44508;SDS011;30214;52.246;14.408;2022-08-11T08:45:42;3.72;;;1.73;;
44508;SDS011;30214;52.246;14.408;2022-08-11T08:48:10;7.13;;;1.85;;
44508;SDS011;30214;52.246;14.408;2022-08-11T08:50:46;3.10;;;1.55;;
44508;SDS011;30214;52.246;14.408;2022-08-11T08:53:38;4.95;;;1.40;;
44508;SDS011;30214;52.246;14.408;2022-08-11T08:56:08;2.78;;;1.50;;
44508;SDS011;30214;52.246;14.408;2022-08-11T08:58:36;4.22;;;1.45;;
44508;SDS011;30214;52.246;14.408;2022-08-11T09:01:04;3.55;;;1.20;;
44508;SDS011;30214;52.246;14.408;2022-08-11T09:03:35;3.08;;;1.42;;
44508;SDS011;30214;52.246;14.408;2022-08-11T09:06:04;3.60;;;1.60;;
44508;SDS011;30214;52.246;14.408;2022-08-11T09:08:33;3.85;;;1.40;;
44508;SDS011;30214;52.246;14.408;2022-08-11T09:11:01;2.85;;;1.30;;
44508;SDS011;30214;52.246;14.408;2022-08-11T09:13:47;3.88;;;1.35;;
44508;SDS011;30214;52.246;14.408;2022-08-11T09:16:15;3.83;;;1.67;;
44508;SDS011;30214;52.246;14.408;2022-08-11T09:18:43;6.05;;;1.80;;
44508;SDS011;30214;52.246;14.408;2022-08-11T09:21:12;8.10;;;1.83;;
44508;SDS011;30214;52.246;14.408;2022-08-11T09:23:43;4.97;;;1.42;;
44508;SDS011;30214;52.246;14.408;2022-08-11T09:26:30;5.63;;;1.45;;
44508;SDS011;30214;52.246;14.408;2022-08-11T09:29:26;8.45;;;1.77;;
44508;SDS011;30214;52.246;14.408;2022-08-11T09:31:55;8.15;;;2.25;;
44508;SDS011;30214;52.246;14.408;2022-08-11T09:34:24;9.13;;;2.22;;
44508;SDS011;30214;52.246;14.408;2022-08-11T09:36:53;2.45;;;1.20;;
44508;SDS011;30214;52.246;14.408;2022-08-11T09:39:39;2.33;;;1.27;;
44508;SDS011;30214;52.246;14.408;2022-08-11T09:42:25;5.03;;;1.40;;
44508;SDS011;30214;52.246;14.408;2022-08-11T09:45:12;2.50;;;1.30;;
44508;SDS011;30214;52.246;14.408;2022-08-11T09:47:41;3.92;;;1.48;;
44508;SDS011;30214;52.246;14.408;2022-08-11T09:50:09;5.05;;;1.63;;
44508;SDS011;30214;52.246;14.408;2022-08-11T09:52:42;6.82;;;1.27;;
44508;SDS011;30214;52.246;14.408;2022-08-11T09:55:13;2.40;;;1.42;;
44508;SDS011;30214;52.246;14.408;2022-08-11T09:57:44;4.30;;;1.33;;
44508;SDS011;30214;52.246;14.408;2022-08-11T10:00:31;4.18;;;1.30;;
44508;SDS011;30214;52.246;14.408;2022-08-11T10:03:02;4.38;;;1.38;;
44508;SDS011;30214;52.246;14.408;2022-08-11T10:05:32;4.88;;;1.48;;
44508;SDS011;30214;52.246;14.408;2022-08-11T10:08:19;3.75;;;1.20;;
44508;SDS011;30214;52.246;14.408;2022-08-11T10:10:48;3.08;;;1.27;;
44508;SDS011;30214;52.246;14.408;2022-08-11T10:13:16;3.15;;;1.20;;
44508;SDS011;30214;52.246;14.408;2022-08-11T10:15:51;2.63;;;1.50;;
44508;SDS011;30214;52.246;14.408;2022-08-11T10:18:23;6.32;;;1.80;;
44508;SDS011;30214;52.246;14.408;2022-08-11T10:21:15;3.42;;;1.30;;
44508;SDS011;30214;52.246;14.408;2022-08-11T10:23:54;6.78;;;1.45;;
44508;SDS011;30214;52.246;14.408;2022-08-11T10:26:42;6.80;;;1.50;;
44508;SDS011;30214;52.246;14.408;2022-08-11T10:29:19;4.15;;;1.52;;
44508;SDS011;30214;52.246;14.408;2022-08-11T10:32:05;3.75;;;1.30;;
44508;SDS011;30214;52.246;14.408;2022-08-11T10:34:51;3.47;;;1.27;;
44508;SDS011;30214;52.246;14.408;2022-08-11T10:37:20;2.25;;;1.30;;
44508;SDS011;30214;52.246;14.408;2022-08-11T10:39:51;2.10;;;1.20;;
44508;SDS011;30214;52.246;14.408;2022-08-11T10:42:20;5.28;;;1.23;;
44508;SDS011;30214;52.246;14.408;2022-08-11T10:45:06;4.13;;;1.30;;
44508;SDS011;30214;52.246;14.408;2022-08-11T10:47:55;5.07;;;1.10;;
44508;SDS011;30214;52.246;14.408;2022-08-11T10:50:22;2.55;;;1.13;;
44508;SDS011;30214;52.246;14.408;2022-08-11T10:53:16;4.95;;;1.20;;
44508;SDS011;30214;52.246;14.408;2022-08-11T10:56:04;3.80;;;1.20;;
44508;SDS011;30214;52.246;14.408;2022-08-11T10:58:50;3.65;;;1.42;;
44508;SDS011;30214;52.246;14.408;2022-08-11T11:01:21;4.30;;;1.20;;
44508;SDS011;30214;52.246;14.408;2022-08-11T11:03:54;3.85;;;1.05;;
44508;SDS011;30214;52.246;14.408;2022-08-11T11:06:26;2.00;;;1.20;;
44508;SDS011;30214;52.246;14.408;2022-08-11T11:09:01;6.25;;;1.20;;
44508;SDS011;30214;52.246;14.408;2022-08-11T11:11:34;3.55;;;1.23;;
44508;SDS011;30214;52.246;14.408;2022-08-11T11:14:24;1.80;;;0.95;;
44508;SDS011;30214;52.246;14.408;2022-08-11T11:17:13;2.50;;;1.15;;
44508;SDS011;30214;52.246;14.408;2022-08-11T11:19:59;8.73;;;1.20;;
44508;SDS011;30214;52.246;14.408;2022-08-11T11:22:30;2.40;;;1.10;;
44508;SDS011;30214;52.246;14.408;2022-08-11T11:25:07;3.00;;;1.10;;
44508;SDS011;30214;52.246;14.408;2022-08-11T11:27:50;1.88;;;1.00;;
44508;SDS011;30214;52.246;14.408;2022-08-11T11:30:31;5.40;;;1.30;;
44508;SDS011;30214;52.246;14.408;2022-08-11T11:33:07;4.07;;;1.10;;
44508;SDS011;30214;52.246;14.408;2022-08-11T11:35:46;4.07;;;1.23;;
44508;SDS011;30214;52.246;14.408;2022-08-11T11:38:25;5.22;;;1.10;;
44508;SDS011;30214;52.246;14.408;2022-08-11T11:40:53;3.28;;;1.10;;
44508;SDS011;30214;52.246;14.408;2022-08-11T11:43:36;3.10;;;1.40;;
44508;SDS011;30214;52.246;14.408;2022-08-11T11:46:04;3.08;;;1.40;;
44508;SDS011;30214;52.246;14.408;2022-08-11T11:48:34;2.80;;;1.00;;
44508;SDS011;30214;52.246;14.408;2022-08-11T11:51:03;4.45;;;1.20;;
44508;SDS011;30214;52.246;14.408;2022-08-11T11:53:31;6.45;;;1.27;;
44508;SDS011;30214;52.246;14.408;2022-08-11T11:55:59;2.22;;;1.13;;
44508;SDS011;30214;52.246;14.408;2022-08-11T11:58:28;2.72;;;1.20;;
44508;SDS011;30214;52.246;14.408;2022-08-11T12:01:14;3.38;;;1.27;;
44508;SDS011;30214;52.246;14.408;2022-08-11T12:03:42;2.83;;;1.20;;
44508;SDS011;30214;52.246;14.408;2022-08-11T12:06:11;2.75;;;1.27;;
44508;SDS011;30214;52.246;14.408;2022-08-11T12:08:39;3.00;;;1.23;;
44508;SDS011;30214;52.246;14.408;2022-08-11T12:11:09;6.32;;;1.05;;
44508;SDS011;30214;52.246;14.408;2022-08-11T12:13:56;3.10;;;1.35;;
44508;SDS011;30214;52.246;14.408;2022-08-11T12:16:29;3.03;;;1.20;;
44508;SDS011;30214;52.246;14.408;2022-08-11T12:18:59;3.08;;;1.20;;
44508;SDS011;30214;52.246;14.408;2022-08-11T12:21:28;4.20;;;1.23;;
44508;SDS011;30214;52.246;14.408;2022-08-11T12:23:56;2.42;;;1.27;;
44508;SDS011;30214;52.246;14.408;2022-08-11T12:26:43;3.28;;;1.23;;
44508;SDS011;30214;52.246;14.408;2022-08-11T12:29:29;1.70;;;1.10;;
44508;SDS011;30214;52.246;14.408;2022-08-11T12:31:58;3.75;;;1.10;;
44508;SDS011;30214;52.246;14.408;2022-08-11T12:34:26;4.78;;;1.10;;
44508;SDS011;30214;52.246;14.408;2022-08-11T12:36:55;5.43;;;1.30;;
44508;SDS011;30214;52.246;14.408;2022-08-11T12:39:26;4.60;;;1.17;;
44508;SDS011;30214;52.246;14.408;2022-08-11T12:42:17;4.05;;;1.30;;
44508;SDS011;30214;52.246;14.408;2022-08-11T12:45:03;7.10;;;1.30;;
44508;SDS011;30214;52.246;14.408;2022-08-11T12:47:58;3.30;;;1.25;;
44508;SDS011;30214;52.246;14.408;2022-08-11T12:50:49;3.65;;;1.30;;
44508;SDS011;30214;52.246;14.408;2022-08-11T12:53:41;2.80;;;1.52;;
44508;SDS011;30214;52.246;14.408;2022-08-11T12:56:17;3.90;;;1.20;;
44508;SDS011;30214;52.246;14.408;2022-08-11T12:59:03;2.88;;;1.20;;
44508;SDS011;30214;52.246;14.408;2022-08-11T13:01:49;3.65;;;1.80;;
44508;SDS011;30214;52.246;14.408;2022-08-11T13:04:35;3.08;;;1.10;;
44508;SDS011;30214;52.246;14.408;2022-08-11T13:07:19;5.30;;;1.02;;
44508;SDS011;30214;52.246;14.408;2022-08-11T13:09:48;4.20;;;1.10;;
44508;SDS011;30214;52.246;14.408;2022-08-11T13:12:16;6.45;;;1.20;;
44508;SDS011;30214;52.246;14.408;2022-08-11T13:15:02;4.15;;;1.38;;
44508;SDS011;30214;52.246;14.408;2022-08-11T13:17:30;2.45;;;1.20;;
44508;SDS011;30214;52.246;14.408;2022-08-11T13:20:00;1.85;;;1.13;;
44508;SDS011;30214;52.246;14.408;2022-08-11T13:22:30;2.28;;;1.00;;
44508;SDS011;30214;52.246;14.408;2022-08-11T13:24:58;2.45;;;1.10;;
44508;SDS011;30214;52.246;14.408;2022-08-11T13:27:25;2.22;;;1.30;;
44508;SDS011;30214;52.246;14.408;2022-08-11T13:29:53;3.67;;;1.20;;
44508;SDS011;30214;52.246;14.408;2022-08-11T13:32:41;3.13;;;1.15;;
44508;SDS011;30214;52.246;14.408;2022-08-11T13:35:12;3.92;;;1.17;;
44508;SDS011;30214;52.246;14.408;2022-08-11T13:37:40;3.58;;;1.23;;
44508;SDS011;30214;52.246;14.408;2022-08-11T13:40:10;3.08;;;1.10;;
44508;SDS011;30214;52.246;14.408;2022-08-11T13:42:39;6.20;;;1.10;;
44508;SDS011;30214;52.246;14.408;2022-08-11T13:45:07;2.00;;;1.17;;
44508;SDS011;30214;52.246;14.408;2022-08-11T13:47:36;5.28;;;1.40;;
44508;SDS011;30214;52.246;14.408;2022-08-11T13:50:04;2.25;;;1.05;;
44508;SDS011;30214;52.246;14.408;2022-08-11T13:52:35;3.13;;;1.20;;
44508;SDS011;30214;52.246;14.408;2022-08-11T13:55:04;3.92;;;1.20;;
44508;SDS011;30214;52.246;14.408;2022-08-11T13:57:46;4.35;;;1.65;;
44508;SDS011;30214;52.246;14.408;2022-08-11T14:00:15;4.55;;;1.20;;
44508;SDS011;30214;52.246;14.408;2022-08-11T14:02:44;2.40;;;1.10;;
44508;SDS011;30214;52.246;14.408;2022-08-11T14:05:15;4.38;;;1.30;;
44508;SDS011;30214;52.246;14.408;2022-08-11T14:07:47;15.57;;;1.50;;
44508;SDS011;30214;52.246;14.408;2022-08-11T14:10:18;2.45;;;1.00;;
44508;SDS011;30214;52.246;14.408;2022-08-11T14:12:52;2.65;;;1.27;;
44508;SDS011;30214;52.246;14.408;2022-08-11T14:15:43;3.03;;;1.30;;
44508;SDS011;30214;52.246;14.408;2022-08-11T14:18:17;3.80;;;1.10;;
44508;SDS011;30214;52.246;14.408;2022-08-11T14:20:48;2.38;;;1.10;;
44508;SDS011;30214;52.246;14.408;2022-08-11T14:23:38;6.22;;;1.20;;
44508;SDS011;30214;52.246;14.408;2022-08-11T14:26:09;3.85;;;1.02;;
44508;SDS011;30214;52.246;14.408;2022-08-11T14:28:51;4.40;;;1.25;;
44508;SDS011;30214;52.246;14.408;2022-08-11T14:31:23;3.65;;;1.30;;
44508;SDS011;30214;52.246;14.408;2022-08-11T14:33:53;2.92;;;1.10;;
44508;SDS011;30214;52.246;14.408;2022-08-11T14:36:22;3.10;;;1.00;;
44508;SDS011;30214;52.246;14.408;2022-08-11T14:38:53;2.75;;;1.10;;
44508;SDS011;30214;52.246;14.408;2022-08-11T14:41:22;2.05;;;1.20;;
44508;SDS011;30214;52.246;14.408;2022-08-11T14:44:08;5.97;;;1.40;;
44508;SDS011;30214;52.246;14.408;2022-08-11T14:46:54;3.78;;;1.40;;
44508;SDS011;30214;52.246;14.408;2022-08-11T14:49:33;4.50;;;1.02;;
44508;SDS011;30214;52.246;14.408;2022-08-11T14:52:03;4.85;;;1.55;;
44508;SDS011;30214;52.246;14.408;2022-08-11T14:54:36;4.63;;;1.10;;
44508;SDS011;30214;52.246;14.408;2022-08-11T14:57:21;5.95;;;1.40;;
44508;SDS011;30214;52.246;14.408;2022-08-11T14:59:52;2.85;;;1.30;;
44508;SDS011;30214;52.246;14.408;2022-08-11T15:02:23;2.17;;;1.20;;
44508;SDS011;30214;52.246;14.408;2022-08-11T15:05:08;4.90;;;1.20;;
44508;SDS011;30214;52.246;14.408;2022-08-11T15:07:36;2.03;;;1.20;;
44508;SDS011;30214;52.246;14.408;2022-08-11T15:10:05;2.72;;;1.20;;
44508;SDS011;30214;52.246;14.408;2022-08-11T15:12:35;5.80;;;1.20;;
44508;SDS011;30214;52.246;14.408;2022-08-11T15:15:06;3.53;;;1.20;;
44508;SDS011;30214;52.246;14.408;2022-08-11T15:17:53;2.72;;;1.10;;
44508;SDS011;30214;52.246;14.408;2022-08-11T15:20:24;2.15;;;1.20;;
44508;SDS011;30214;52.246;14.408;2022-08-11T15:23:11;2.33;;;1.10;;
44508;SDS011;30214;52.246;14.408;2022-08-11T15:25:58;4.53;;;1.23;;
44508;SDS011;30214;52.246;14.408;2022-08-11T15:28:28;4.53;;;1.33;;
44508;SDS011;30214;52.246;14.408;2022-08-11T15:31:18;5.78;;;1.20;;
44508;SDS011;30214;52.246;14.408;2022-08-11T15:34:06;2.28;;;1.23;;
44508;SDS011;30214;52.246;14.408;2022-08-11T15:36:56;3.63;;;1.23;;
44508;SDS011;30214;52.246;14.408;2022-08-11T15:39:44;4.75;;;1.10;;
44508;SDS011;30214;52.246;14.408;2022-08-11T15:42:36;7.40;;;1.30;;
44508;SDS011;30214;52.246;14.408;2022-08-11T15:45:28;2.72;;;1.15;;
44508;SDS011;30214;52.246;14.408;2022-08-11T15:48:25;6.30;;;1.30;;
44508;SDS011;30214;52.246;14.408;2022-08-11T15:51:01;3.78;;;1.20;;
44508;SDS011;30214;52.246;14.408;2022-08-11T15:53:39;2.42;;;1.25;;
44508;SDS011;30214;52.246;14.408;2022-08-11T15:58:40;4.60;;;1.20;;
44508;SDS011;30214;52.246;14.408;2022-08-11T16:01:28;6.18;;;1.27;;
44508;SDS011;30214;52.246;14.408;2022-08-11T16:04:15;3.28;;;1.10;;
44508;SDS011;30214;52.246;14.408;2022-08-11T16:06:50;8.35;;;1.33;;
44508;SDS011;30214;52.246;14.408;2022-08-11T16:09:23;3.50;;;1.20;;
44508;SDS011;30214;52.246;14.408;2022-08-11T16:11:58;3.15;;;1.27;;
44508;SDS011;30214;52.246;14.408;2022-08-11T16:14:32;2.22;;;1.27;;
44508;SDS011;30214;52.246;14.408;2022-08-11T16:17:20;2.97;;;1.35;;
44508;SDS011;30214;52.246;14.408;2022-08-11T16:19:52;4.82;;;1.20;;
44508;SDS011;30214;52.246;14.408;2022-08-11T16:22:22;2.60;;;1.33;;
44508;SDS011;30214;52.246;14.408;2022-08-11T16:25:00;3.92;;;1.27;;
44508;SDS011;30214;52.246;14.408;2022-08-11T16:27:31;6.88;;;1.83;;
44508;SDS011;30214;52.246;14.408;2022-08-11T16:30:03;3.92;;;1.15;;
44508;SDS011;30214;52.246;14.408;2022-08-11T16:32:32;3.03;;;1.30;;
44508;SDS011;30214;52.246;14.408;2022-08-11T16:35:03;5.13;;;1.33;;
44508;SDS011;30214;52.246;14.408;2022-08-11T16:37:51;4.60;;;1.50;;